Time;durP1;ratioP1;P1;durP2;ratioP2;P2;SDS_P1;SDS_P2;PMS_P1;PMS_P2;Temp;Humidity;BMP_temperature;BMP_pressure;BME280_temperature;BME280_humidity;BME280_pressure;Samples;Min_cycle;Max_cycle;Signal;HPM_P1;HPM_P2
2021/01/20 00:01:15;;;;;;;1999.90;999.90;;;7.40;99.90;;;;;;4961395;29;20059;-93
2021/01/20 00:03:43;;;;;;;1999.90;999.90;;;7.50;99.90;;;;;;4959819;29;20398;-93
2021/01/20 00:06:11;;;;;;;1999.90;999.90;;;7.40;99.90;;;;;;4959679;29;20454;-93
2021/01/20 00:16:52;;;;;;;1999.90;999.90;;;7.40;99.90;;;;;;4922031;29;20045;-95
2021/01/20 00:19:22;;;;;;;1999.90;999.90;;;7.50;99.90;;;;;;4933742;29;20056;-93
2021/01/20 00:21:50;;;;;;;1999.90;999.90;;;7.40;99.90;;;;;;4940534;29;20059;-92
2021/01/20 00:24:17;;;;;;;1999.90;999.90;;;7.40;99.90;;;;;;4941683;29;20515;-92
2021/01/20 00:26:44;;;;;;;1999.90;999.90;;;7.40;99.90;;;;;;4940916;29;20032;-92
2021/01/20 00:29:12;;;;;;;1999.90;999.90;;;7.40;99.90;;;;;;4936065;29;20055;-93
2021/01/20 00:31:39;;;;;;;1999.90;999.90;;;7.50;99.90;;;;;;4924459;29;20464;-92
2021/01/20 00:34:06;;;;;;;1999.90;999.90;;;7.40;99.90;;;;;;4932019;29;20063;-92
2021/01/20 00:36:40;;;;;;;1999.90;999.90;;;7.40;99.90;;;;;;4920797;29;20060;-92
2021/01/20 00:39:07;;;;;;;1999.90;999.90;;;7.50;99.90;;;;;;4921268;29;20052;-93
2021/01/20 00:41:35;;;;;;;1999.90;999.90;;;7.40;99.90;;;;;;4920450;29;20063;-93
2021/01/20 00:44:03;;;;;;;1999.90;999.90;;;7.40;99.90;;;;;;4920920;29;20059;-93
2021/01/20 00:46:30;;;;;;;1999.90;999.90;;;7.40;99.90;;;;;;4920589;29;20103;-92
2021/01/20 00:48:57;;;;;;;1999.90;999.90;;;7.40;99.90;;;;;;4920115;29;20166;-92
2021/01/20 00:51:24;;;;;;;1999.90;999.90;;;7.40;99.90;;;;;;4920071;29;20048;-92
2021/01/20 00:53:52;;;;;;;1999.90;999.90;;;7.40;99.90;;;;;;4920041;29;20075;-93
2021/01/20 00:56:20;;;;;;;1999.90;999.90;;;7.40;99.90;;;;;;4920101;29;20111;-93
2021/01/20 00:58:47;;;;;;;1999.90;999.90;;;7.40;99.90;;;;;;4920786;29;20060;-93
2021/01/20 01:01:15;;;;;;;1999.90;999.90;;;7.40;99.90;;;;;;4920199;29;20056;-93
2021/01/20 01:03:42;;;;;;;1999.90;999.90;;;7.40;99.90;;;;;;4920277;29;20059;-93
2021/01/20 01:06:14;;;;;;;1999.90;999.90;;;7.30;99.90;;;;;;4920512;29;20067;-94
2021/01/20 01:08:41;;;;;;;1999.90;999.90;;;7.30;99.90;;;;;;4919624;29;20056;-93
2021/01/20 01:11:09;;;;;;;1999.90;999.90;;;7.30;99.90;;;;;;4920254;29;20049;-93
2021/01/20 01:13:37;;;;;;;1999.90;999.90;;;7.30;99.90;;;;;;4920700;29;20056;-93
2021/01/20 01:16:04;;;;;;;1999.90;999.90;;;7.30;99.90;;;;;;4919919;29;20443;-93
2021/01/20 01:18:32;;;;;;;1999.90;999.90;;;7.30;99.90;;;;;;4919906;29;20063;-92
2021/01/20 01:20:59;;;;;;;1999.90;999.90;;;7.40;99.90;;;;;;4920565;29;20487;-92
2021/01/20 01:23:27;;;;;;;1999.90;999.90;;;7.30;99.90;;;;;;4919818;29;20052;-93
2021/01/20 01:25:55;;;;;;;1999.90;999.90;;;7.30;99.90;;;;;;4920774;29;20103;-92
2021/01/20 01:28:23;;;;;;;1999.90;999.90;;;7.30;99.90;;;;;;4919627;29;20459;-93
2021/01/20 01:30:50;;;;;;;1999.90;999.90;;;7.30;99.90;;;;;;4920205;29;20052;-92
2021/01/20 01:33:17;;;;;;;1999.90;999.90;;;7.30;99.90;;;;;;4920501;29;20059;-92
2021/01/20 01:35:45;;;;;;;1999.90;999.90;;;7.30;99.90;;;;;;4920176;29;20056;-93
2021/01/20 01:38:12;;;;;;;1999.90;999.90;;;7.30;99.90;;;;;;4919874;29;20085;-93
2021/01/20 01:40:40;;;;;;;1999.90;999.90;;;7.30;99.90;;;;;;4919820;29;20103;-93
2021/01/20 01:43:07;;;;;;;1999.90;999.90;;;7.30;99.90;;;;;;4919511;29;20060;-93
2021/01/20 01:45:35;;;;;;;1999.90;999.90;;;7.40;99.90;;;;;;4919032;29;20060;-93
2021/01/20 01:48:03;;;;;;;1999.90;999.90;;;7.30;99.90;;;;;;4920163;29;20448;-93
2021/01/20 01:50:30;;;;;;;1999.90;999.90;;;7.40;99.90;;;;;;4919259;29;20048;-93
2021/01/20 01:52:58;;;;;;;1999.90;999.90;;;7.30;99.90;;;;;;4919491;29;20067;-93
2021/01/20 01:55:25;;;;;;;1999.90;999.90;;;7.30;99.90;;;;;;4919961;29;20120;-92
2021/01/20 01:57:53;;;;;;;1999.90;999.90;;;7.40;99.90;;;;;;4919153;29;20517;-93
2021/01/20 02:00:21;;;;;;;1999.90;999.90;;;7.30;99.90;;;;;;4919801;29;20059;-93
2021/01/20 02:02:50;;;;;;;1999.90;999.90;;;7.30;99.90;;;;;;4919457;29;20475;-93
2021/01/20 02:05:18;;;;;;;1999.90;999.90;;;7.40;99.90;;;;;;4918901;29;20048;-94
2021/01/20 02:07:46;;;;;;;1999.90;999.90;;;7.30;99.90;;;;;;4919257;29;20079;-93
2021/01/20 02:10:14;;;;;;;1999.90;999.90;;;7.30;99.90;;;;;;4933652;29;20474;-93
2021/01/20 02:13:13;;;;;;;1999.90;999.90;;;7.30;99.90;;;;;;4938307;29;20482;-92
2021/01/20 02:15:46;;;;;;;1999.90;999.90;;;7.30;99.90;;;;;;4920753;29;20087;-92
2021/01/20 02:18:18;;;;;;;1999.90;999.90;;;7.30;99.90;;;;;;4918958;29;20056;-92
2021/01/20 02:21:09;;;;;;;1999.90;999.90;;;7.30;99.90;;;;;;4936515;29;20051;-93
2021/01/20 02:23:40;;;;;;;1999.90;999.90;;;7.30;99.90;;;;;;4938493;29;20482;-93
2021/01/20 02:26:28;;;;;;;1999.90;999.90;;;7.20;99.90;;;;;;4944230;29;20056;-92
2021/01/20 02:29:09;;;;;;;1999.90;999.90;;;7.30;99.90;;;;;;4922741;29;20056;-92
2021/01/20 02:31:39;;;;;;;1999.90;999.90;;;7.30;99.90;;;;;;4921816;29;20076;-92
2021/01/20 02:34:13;;;;;;;1999.90;999.90;;;7.30;99.90;;;;;;4929814;29;20082;-92
2021/01/20 02:36:41;;;;;;;1999.90;999.90;;;7.30;99.90;;;;;;4928246;29;20462;-92
2021/01/20 02:39:09;;;;;;;1999.90;999.90;;;7.30;99.90;;;;;;4921315;29;20055;-93
2021/01/20 02:41:36;;;;;;;1999.90;999.90;;;7.30;99.90;;;;;;4922396;29;20052;-93
2021/01/20 02:44:05;;;;;;;1999.90;999.90;;;7.30;99.90;;;;;;4923787;29;20063;-93
2021/01/20 02:46:33;;;;;;;1999.90;999.90;;;7.30;99.90;;;;;;4922801;29;20052;-93
2021/01/20 02:49:02;;;;;;;1999.90;999.90;;;7.20;99.90;;;;;;4934637;29;20411;-93
2021/01/20 02:51:43;;;;;;;1999.90;999.90;;;7.30;99.90;;;;;;4941590;29;20439;-93
2021/01/20 02:54:12;;;;;;;1999.90;999.90;;;7.30;99.90;;;;;;4941457;29;20055;-94
2021/01/20 02:56:40;;;;;;;1999.90;999.90;;;7.30;99.90;;;;;;4941961;29;20543;-93
2021/01/20 02:59:09;;;;;;;1999.90;999.90;;;7.30;99.90;;;;;;4942151;29;20063;-94
2021/01/20 03:01:40;;;;;;;1999.90;999.90;;;7.30;99.90;;;;;;4941522;29;20107;-93
2021/01/20 03:04:09;;;;;;;1999.90;999.90;;;7.30;99.90;;;;;;4928823;29;20107;-93
2021/01/20 03:06:37;;;;;;;1999.90;999.90;;;7.30;99.90;;;;;;4922607;29;20103;-93
2021/01/20 03:09:05;;;;;;;1999.90;999.90;;;7.30;99.90;;;;;;4927267;29;20056;-93
2021/01/20 03:11:42;;;;;;;1999.90;999.90;;;7.30;99.90;;;;;;4941242;29;20107;-92
2021/01/20 03:14:10;;;;;;;1999.90;999.90;;;7.30;99.90;;;;;;4937781;29;20056;-93
2021/01/20 03:16:37;;;;;;;1999.90;999.90;;;7.30;99.90;;;;;;4937981;29;20064;-91
2021/01/20 03:19:04;;;;;;;1999.90;999.90;;;7.30;99.90;;;;;;4941366;29;20052;-91
2021/01/20 03:21:33;;;;;;;1999.90;999.90;;;7.30;99.90;;;;;;4927794;29;20052;-95
2021/01/20 03:24:03;;;;;;;1999.90;999.90;;;7.30;99.90;;;;;;4908552;29;20056;-96
2021/01/20 03:26:30;;;;;;;1999.90;999.90;;;7.30;99.90;;;;;;4906749;29;20056;-96
2021/01/20 03:28:58;;;;;;;1999.90;999.90;;;7.30;99.90;;;;;;4907146;29;20067;-96
2021/01/20 03:31:26;;;;;;;1999.90;999.90;;;7.30;99.90;;;;;;4908262;29;20131;-96
2021/01/20 03:33:54;;;;;;;1999.90;999.90;;;7.40;99.90;;;;;;4909273;29;20053;-96
2021/01/20 03:36:21;;;;;;;1999.90;999.90;;;7.40;99.90;;;;;;4910184;29;20056;-96
2021/01/20 03:38:50;;;;;;;1999.90;999.90;;;7.40;99.90;;;;;;4911201;29;20179;-96
2021/01/20 03:41:18;;;;;;;1999.90;999.90;;;7.40;99.90;;;;;;4902930;29;20056;-92
2021/01/20 03:43:45;;;;;;;1999.90;999.90;;;7.40;99.90;;;;;;4902568;29;20061;-91
2021/01/20 03:46:12;;;;;;;1999.90;999.90;;;7.40;99.90;;;;;;4902585;29;20058;-92
2021/01/20 03:48:39;;;;;;;1999.90;999.90;;;7.40;99.90;;;;;;4903033;29;20093;-92
2021/01/20 03:51:07;;;;;;;1999.90;999.90;;;7.40;99.90;;;;;;4908851;29;20472;-93
2021/01/20 03:53:34;;;;;;;1999.90;999.90;;;7.40;99.90;;;;;;4921372;29;20107;-92
2021/01/20 03:56:03;;;;;;;1999.90;999.90;;;7.40;99.90;;;;;;4921438;29;20063;-92
2021/01/20 03:58:30;;;;;;;1999.90;999.90;;;7.50;99.90;;;;;;4921705;29;20060;-93
2021/01/20 04:00:57;;;;;;;1999.90;999.90;;;7.50;99.90;;;;;;4920894;29;20048;-92
2021/01/20 04:03:25;;;;;;;1999.90;999.90;;;7.50;99.90;;;;;;4921247;29;20055;-94
2021/01/20 04:05:52;;;;;;;1999.90;999.90;;;7.50;99.90;;;;;;4921247;29;20063;-93
2021/01/20 04:08:20;;;;;;;1999.90;999.90;;;7.50;99.90;;;;;;4920872;29;20492;-94
2021/01/20 04:10:47;;;;;;;1999.90;999.90;;;7.50;99.90;;;;;;4920426;29;20491;-93
2021/01/20 04:13:15;;;;;;;1999.90;999.90;;;7.50;99.90;;;;;;4921061;29;20143;-93
2021/01/20 04:15:43;;;;;;;1999.90;999.90;;;7.60;99.90;;;;;;4920808;29;20142;-93
2021/01/20 04:18:10;;;;;;;1999.90;999.90;;;7.60;99.90;;;;;;4921141;29;20056;-93
2021/01/20 04:39:26;;;;;;;1999.90;999.90;;;7.50;99.90;;;;;;5688741;23;20289;-96
2021/01/20 04:41:56;;;;;;;1999.90;999.90;;;7.60;99.90;;;;;;4947656;29;20134;-96
2021/01/20 04:44:25;;;;;;;1999.90;999.90;;;7.60;99.90;;;;;;4948179;29;20056;-96
2021/01/20 04:46:56;;;;;;;1999.90;999.90;;;7.50;99.90;;;;;;4948418;29;20055;-96
2021/01/20 04:49:26;;;;;;;1999.90;999.90;;;7.50;99.90;;;;;;4947370;29;20111;-96
2021/01/20 04:51:56;;;;;;;1999.90;999.90;;;7.50;99.90;;;;;;4947494;29;20115;-96
2021/01/20 04:54:27;;;;;;;1999.90;999.90;;;7.50;99.90;;;;;;4948014;29;20055;-95
2021/01/20 04:56:56;;;;;;;1999.90;999.90;;;7.50;99.90;;;;;;4945605;29;20115;-96
2021/01/20 04:59:29;;;;;;;1999.90;999.90;;;7.50;99.90;;;;;;4945971;29;20052;-96
2021/01/20 05:01:58;;;;;;;1999.90;999.90;;;7.60;99.90;;;;;;4945597;29;20052;-96
2021/01/20 05:04:29;;;;;;;1999.90;999.90;;;7.50;99.90;;;;;;4946352;29;20116;-96
2021/01/20 05:06:59;;;;;;;1999.90;999.90;;;7.60;99.90;;;;;;4949621;29;20084;-96
2021/01/20 05:09:28;;;;;;;1999.90;999.90;;;7.50;99.90;;;;;;4951544;29;20052;-96
2021/01/20 05:11:55;;;;;;;1999.90;999.90;;;7.50;99.90;;;;;;4950988;29;20071;-95
2021/01/20 05:14:27;;;;;;;1999.90;999.90;;;7.50;99.90;;;;;;4949473;29;20058;-96
2021/01/20 05:17:06;;;;;;;1999.90;999.90;;;7.50;99.90;;;;;;4950355;29;20058;-96
2021/01/20 05:19:37;;;;;;;1999.90;999.90;;;7.60;99.90;;;;;;4945368;29;20082;-96
2021/01/20 05:22:05;;;;;;;1999.90;999.90;;;7.60;99.90;;;;;;4943512;29;20127;-96
2021/01/20 05:24:35;;;;;;;1999.90;999.90;;;7.60;99.90;;;;;;4944245;29;20064;-96
2021/01/20 05:27:03;;;;;;;1999.90;999.90;;;7.60;99.90;;;;;;4943387;29;20078;-96
2021/01/20 05:29:34;;;;;;;1999.90;999.90;;;7.60;99.90;;;;;;4946237;29;20047;-96
2021/01/20 05:32:18;;;;;;;1999.90;999.90;;;7.60;99.90;;;;;;4948024;29;20062;-96
2021/01/20 05:34:58;;;;;;;1999.90;999.90;;;7.70;99.90;;;;;;4945350;29;20056;-96
2021/01/20 05:37:29;;;;;;;1999.90;999.90;;;7.70;99.90;;;;;;4945057;29;20382;-96
2021/01/20 05:40:18;;;;;;;1999.90;999.90;;;7.70;99.90;;;;;;4904175;29;20076;-96
2021/01/20 05:42:49;;;;;;;1999.90;999.90;;;7.60;99.90;;;;;;4943570;29;20055;-96
2021/01/20 05:45:19;;;;;;;1999.90;999.90;;;7.60;99.90;;;;;;4946132;29;20055;-96
2021/01/20 05:48:06;;;;;;;1999.90;999.90;;;7.70;99.90;;;;;;4953576;29;20066;-96
2021/01/20 05:50:55;;;;;;;1999.90;999.90;;;7.70;99.90;;;;;;4952172;29;20055;-96
2021/01/20 05:53:26;;;;;;;1999.90;999.90;;;7.70;99.90;;;;;;4953191;29;20060;-96
2021/01/20 05:56:05;;;;;;;1999.90;999.90;;;7.80;99.90;;;;;;4952398;29;20056;-96
2021/01/20 05:58:40;;;;;;;1999.90;999.90;;;7.80;99.90;;;;;;4953105;29;20124;-96
2021/01/20 06:01:15;;;;;;;1999.90;999.90;;;7.70;99.90;;;;;;4960735;29;20058;-96
2021/01/20 06:03:53;;;;;;;1999.90;999.90;;;7.70;99.90;;;;;;4961163;29;20067;-96
2021/01/20 06:09:08;;;;;;;1999.90;999.90;;;7.80;99.90;;;;;;5008224;23;20055;-96
2021/01/20 06:11:44;;;;;;;1999.90;999.90;;;7.80;99.90;;;;;;4979978;28;20045;-96
2021/01/20 06:14:12;;;;;;;1999.90;999.90;;;7.80;99.90;;;;;;4978210;28;20051;-96
2021/01/20 06:16:46;;;;;;;1999.90;999.90;;;7.80;99.90;;;;;;4970346;29;20054;-96
2021/01/20 06:19:25;;;;;;;1999.90;999.90;;;7.80;99.90;;;;;;4971825;29;20051;-96
2021/01/20 06:21:55;;;;;;;1999.90;999.90;;;7.90;99.90;;;;;;4962942;29;20043;-94
2021/01/20 06:24:33;;;;;;;1999.90;999.90;;;7.90;99.90;;;;;;4964895;29;20055;-96
2021/01/20 06:27:26;;;;;;;1999.90;999.90;;;7.90;99.90;;;;;;4973675;29;20061;-96
2021/01/20 06:30:03;;;;;;;1999.90;999.90;;;7.90;99.90;;;;;;4972507;29;20467;-96
2021/01/20 06:32:37;;;;;;;1999.90;999.90;;;8.00;99.90;;;;;;4972741;29;20039;-96
2021/01/20 06:35:06;;;;;;;1999.90;999.90;;;8.00;99.90;;;;;;4974314;29;20071;-96
2021/01/20 06:37:41;;;;;;;1999.90;999.90;;;8.00;99.90;;;;;;4976661;29;20052;-96
2021/01/20 06:40:37;;;;;;;1999.90;999.90;;;8.00;99.90;;;;;;4969191;28;20047;-93
2021/01/20 06:43:35;;;;;;;1999.90;999.90;;;8.10;99.90;;;;;;4958169;29;20051;-92
2021/01/20 06:46:22;;;;;;;1999.90;999.90;;;8.10;99.90;;;;;;4957130;29;20055;-92
2021/01/20 06:49:14;;;;;;;1999.90;999.90;;;8.00;99.90;;;;;;4956457;29;20060;-93
2021/01/20 07:00:14;;;;;;;1999.90;999.90;;;8.00;99.90;;;;;;5630745;23;20059;-94
2021/01/20 07:03:01;;;;;;;1999.90;999.90;;;8.00;99.90;;;;;;4964773;29;20050;-93
2021/01/20 07:05:33;;;;;;;1999.90;999.90;;;8.00;99.90;;;;;;4966950;29;20054;-94
2021/01/20 07:08:34;;;;;;;1999.90;999.90;;;8.00;99.90;;;;;;4976754;28;20047;-96
2021/01/20 07:17:48;;;;;;;1999.90;999.90;;;8.00;99.90;;;;;;4926695;29;20101;-94
2021/01/20 07:20:16;;;;;;;1999.90;999.90;;;8.00;99.90;;;;;;4918213;29;20059;-94
2021/01/20 07:22:43;;;;;;;1999.90;999.90;;;8.00;99.90;;;;;;4909691;29;20127;-94
2021/01/20 07:25:11;;;;;;;1999.90;999.90;;;8.00;99.90;;;;;;4918261;29;20056;-94
2021/01/20 07:27:48;;;;;;;1999.90;999.90;;;8.00;99.90;;;;;;4919902;29;20056;-94
2021/01/20 07:30:16;;;;;;;1999.90;999.90;;;7.90;99.90;;;;;;4913930;29;20060;-94
2021/01/20 07:32:44;;;;;;;1999.90;999.90;;;7.90;99.90;;;;;;4921126;29;20075;-94
2021/01/20 07:35:18;;;;;;;1999.90;999.90;;;8.00;99.90;;;;;;4921691;29;20052;-93
2021/01/20 07:37:45;;;;;;;1999.90;999.90;;;8.00;99.90;;;;;;4921737;29;20056;-94
2021/01/20 07:40:13;;;;;;;1999.90;999.90;;;8.00;99.90;;;;;;4923769;29;20139;-94
2021/01/20 07:42:41;;;;;;;1999.90;999.90;;;8.00;99.90;;;;;;4910439;29;20049;-94
2021/01/20 07:45:12;;;;;;;1999.90;999.90;;;8.00;99.90;;;;;;4918703;29;20095;-94
2021/01/20 07:47:46;;;;;;;1999.90;999.90;;;7.90;99.90;;;;;;4920722;29;20558;-94
2021/01/20 07:50:14;;;;;;;1999.90;999.90;;;7.90;99.90;;;;;;4921569;29;20107;-94
2021/01/20 07:52:45;;;;;;;1999.90;999.90;;;7.90;99.90;;;;;;4921424;29;20072;-94
2021/01/20 07:55:16;;;;;;;1999.90;999.90;;;7.90;99.90;;;;;;4930150;29;20051;-93
2021/01/20 07:57:44;;;;;;;1999.90;999.90;;;8.00;99.90;;;;;;4939719;29;20084;-94
2021/01/20 08:00:13;;;;;;;1999.90;999.90;;;8.00;99.90;;;;;;4941142;29;20104;-94
2021/01/20 08:02:49;;;;;;;1999.90;999.90;;;8.00;99.90;;;;;;4940038;29;20051;-95
2021/01/20 08:05:18;;;;;;;1999.90;999.90;;;8.00;99.90;;;;;;4936715;29;20063;-94
2021/01/20 08:07:46;;;;;;;1999.90;999.90;;;8.00;99.90;;;;;;4921493;29;20059;-95
2021/01/20 08:10:22;;;;;;;1999.90;999.90;;;8.00;99.90;;;;;;4921648;29;20107;-95
2021/01/20 08:12:52;;;;;;;1999.90;999.90;;;8.00;99.90;;;;;;4921238;29;20075;-94
2021/01/20 08:15:22;;;;;;;1999.90;999.90;;;8.10;99.90;;;;;;4921233;29;20056;-93
2021/01/20 08:17:49;;;;;;;1999.90;999.90;;;8.00;99.90;;;;;;4913295;29;20060;-94
2021/01/20 08:20:17;;;;;;;1999.90;999.90;;;8.10;99.90;;;;;;4908495;29;20056;-94
2021/01/20 08:22:47;;;;;;;1999.90;999.90;;;8.10;99.90;;;;;;4902048;29;20195;-93
2021/01/20 08:25:19;;;;;;;1999.90;999.90;;;8.20;99.90;;;;;;4915189;29;20078;-94
2021/01/20 08:27:46;;;;;;;1999.90;999.90;;;8.20;99.90;;;;;;4905338;29;20120;-94
2021/01/20 08:30:29;;;;;;;1999.90;999.90;;;8.20;99.90;;;;;;4911627;29;20075;-93
2021/01/20 08:32:56;;;;;;;1999.90;999.90;;;8.10;99.90;;;;;;4904162;29;20269;-94
2021/01/20 08:35:29;;;;;;;1999.90;999.90;;;8.20;99.90;;;;;;4918816;29;20060;-94
2021/01/20 08:37:57;;;;;;;1999.90;999.90;;;8.10;99.90;;;;;;4919905;29;20480;-93
2021/01/20 08:40:24;;;;;;;1999.90;999.90;;;8.10;99.90;;;;;;4908125;29;20095;-94
2021/01/20 08:42:53;;;;;;;1999.90;999.90;;;8.20;99.90;;;;;;4920505;29;20142;-95
2021/01/20 08:45:33;;;;;;;1999.90;999.90;;;8.20;99.90;;;;;;4909569;29;20084;-93
2021/01/20 08:48:04;;;;;;;1999.90;999.90;;;8.20;99.90;;;;;;4901324;29;20088;-95
2021/01/20 08:50:40;;;;;;;1999.90;999.90;;;8.20;99.90;;;;;;4901712;29;20075;-95
2021/01/20 08:53:16;;;;;;;1999.90;999.90;;;8.20;99.90;;;;;;4900821;29;20057;-95
2021/01/20 08:55:53;;;;;;;1999.90;999.90;;;8.30;99.90;;;;;;4907590;29;20056;-95
2021/01/20 08:58:27;;;;;;;1999.90;999.90;;;8.30;99.90;;;;;;4907720;29;20056;-93
2021/01/20 09:01:00;;;;;;;1999.90;999.90;;;8.30;99.90;;;;;;4909215;29;20052;-94
2021/01/20 09:03:28;;;;;;;1999.90;999.90;;;8.30;99.90;;;;;;4906175;29;20068;-93
2021/01/20 09:05:58;;;;;;;1999.90;999.90;;;8.30;99.90;;;;;;4913996;29;20086;-94
2021/01/20 09:08:29;;;;;;;1999.90;999.90;;;8.30;99.90;;;;;;4919732;29;20056;-93
2021/01/20 09:10:58;;;;;;;1999.90;999.90;;;8.30;99.90;;;;;;4919188;29;20495;-92
2021/01/20 09:13:26;;;;;;;1999.90;999.90;;;8.30;99.90;;;;;;4905537;29;20056;-93
2021/01/20 09:15:55;;;;;;;1999.90;999.90;;;8.30;99.90;;;;;;4900905;29;20065;-94
2021/01/20 09:18:24;;;;;;;1999.90;999.90;;;8.30;99.90;;;;;;4907361;29;20048;-93
2021/01/20 09:20:52;;;;;;;1999.90;999.90;;;8.40;99.90;;;;;;4920012;29;20140;-93
2021/01/20 09:23:21;;;;;;;1999.90;999.90;;;8.40;99.90;;;;;;4919780;29;20052;-92
2021/01/20 09:25:50;;;;;;;1999.90;999.90;;;8.40;99.90;;;;;;4919601;29;20056;-93
2021/01/20 09:28:24;;;;;;;1999.90;999.90;;;8.30;99.90;;;;;;4919474;29;20067;-92
2021/01/20 09:30:53;;;;;;;1999.90;999.90;;;8.30;99.90;;;;;;4914215;29;20060;-93
2021/01/20 09:33:21;;;;;;;1999.90;999.90;;;8.40;99.90;;;;;;4918502;29;20052;-93
2021/01/20 09:35:48;;;;;;;1999.90;999.90;;;8.40;99.90;;;;;;4922474;29;20052;-93
2021/01/20 09:38:17;;;;;;;1999.90;999.90;;;8.30;99.90;;;;;;4922577;29;20052;-93
2021/01/20 09:40:45;;;;;;;1999.90;999.90;;;8.40;99.90;;;;;;4922303;29;20577;-93
2021/01/20 09:43:13;;;;;;;1999.90;999.90;;;8.40;99.90;;;;;;4922420;29;20056;-92
2021/01/20 09:45:41;;;;;;;1999.90;999.90;;;8.40;99.90;;;;;;4903875;29;20060;-93
2021/01/20 09:48:08;;;;;;;1999.90;999.90;;;8.40;99.90;;;;;;4906796;29;20108;-93
2021/01/20 09:50:37;;;;;;;1999.90;999.90;;;8.40;99.90;;;;;;4922672;29;20048;-93
2021/01/20 09:57:16;;;;;;;1999.90;999.90;;;8.50;99.90;;;;;;4892462;29;20075;-94
2021/01/20 09:59:47;;;;;;;1999.90;999.90;;;8.50;99.90;;;;;;4920883;29;20060;-95
2021/01/20 10:02:20;;;;;;;1999.90;999.90;;;8.50;99.90;;;;;;4910896;29;20053;-95
2021/01/20 10:05:31;;;;;;;1999.90;999.90;;;8.60;99.90;;;;;;4913571;29;20119;-93
2021/01/20 10:08:06;;;;;;;1999.90;999.90;;;8.60;99.90;;;;;;4918869;29;20056;-94
2021/01/20 10:10:37;;;;;;;1999.90;999.90;;;8.50;99.90;;;;;;4905854;29;20059;-94
2021/01/20 10:13:05;;;;;;;1999.90;999.90;;;8.60;99.90;;;;;;4918371;29;20380;-94
2021/01/20 10:15:38;;;;;;;1999.90;999.90;;;8.60;99.90;;;;;;4932222;29;20052;-94
2021/01/20 10:18:23;;;;;;;1999.90;999.90;;;8.50;99.90;;;;;;4925521;29;20055;-96
2021/01/20 11:43:48;;;;;;;1999.90;999.90;;;9.20;99.90;;;;;;4953664;29;20048;-96
2021/01/20 11:46:26;;;;;;;1999.90;999.90;;;9.10;99.90;;;;;;4956912;29;20052;-96
2021/01/20 11:49:07;;;;;;;1999.90;999.90;;;9.20;99.90;;;;;;4955473;29;20046;-96
2021/01/20 11:52:00;;;;;;;1999.90;999.90;;;9.20;99.90;;;;;;4951537;29;20048;-96
2021/01/20 11:57:29;;;;;;;1999.90;999.90;;;9.10;99.90;;;;;;4988492;23;20063;-96
2021/01/20 12:00:13;;;;;;;1999.90;999.90;;;9.10;99.90;;;;;;4921969;29;20127;-93
2021/01/20 12:03:03;;;;;;;1999.90;999.90;;;9.20;99.90;;;;;;4928146;29;20112;-96
2021/01/20 12:05:56;;;;;;;1999.90;999.90;;;9.30;99.90;;;;;;4934994;29;20059;-96
2021/01/20 12:08:40;;;;;;;1999.90;999.90;;;9.30;99.90;;;;;;4934481;29;20482;-96
2021/01/20 12:14:00;;;;;;;1999.90;999.90;;;9.30;99.90;;;;;;4925248;29;20052;-94
2021/01/20 12:16:28;;;;;;;1999.90;999.90;;;9.40;99.90;;;;;;4921522;29;20056;-94
2021/01/20 12:26:55;;;;;;;1999.90;999.90;;;9.40;99.90;;;;;;5176946;23;20502;-93
2021/01/20 12:29:22;;;;;;;1999.90;999.90;;;9.40;99.90;;;;;;4939450;29;20059;-93
2021/01/20 12:31:50;;;;;;;1999.90;999.90;;;9.40;99.90;;;;;;4935559;29;20380;-94
2021/01/20 12:34:17;;;;;;;1999.90;999.90;;;9.30;99.90;;;;;;4929738;29;20488;-93
2021/01/20 12:47:24;;;;;;;1999.90;999.90;;;9.30;99.90;;;;;;4918702;29;20048;-93
2021/01/20 12:49:51;;;;;;;1999.90;999.90;;;9.30;99.90;;;;;;4921212;29;20055;-93
2021/01/20 12:52:19;;;;;;;1999.90;999.90;;;9.30;99.90;;;;;;4927628;29;20048;-94
2021/01/20 12:54:46;;;;;;;1999.90;999.90;;;9.30;99.90;;;;;;4920116;29;20060;-94
2021/01/20 12:59:50;;;;;;;1999.90;999.90;;;9.30;99.90;;;;;;4944912;23;20063;-95
2021/01/20 13:02:17;;;;;;;1999.90;999.90;;;9.20;99.90;;;;;;4947716;29;20051;-95
2021/01/20 13:04:46;;;;;;;1999.90;999.90;;;9.30;99.90;;;;;;4939415;29;20082;-94
2021/01/20 13:07:17;;;;;;;1999.90;999.90;;;9.30;99.90;;;;;;4939466;29;20051;-95
2021/01/20 13:09:45;;;;;;;1999.90;999.90;;;9.20;99.90;;;;;;4940536;29;20154;-94
2021/01/20 13:12:12;;;;;;;1999.90;999.90;;;9.20;99.90;;;;;;4950405;29;20051;-94
2021/01/20 13:14:40;;;;;;;1999.90;999.90;;;9.30;99.90;;;;;;4938689;29;20052;-94
2021/01/20 13:17:07;;;;;;;1999.90;999.90;;;9.30;99.90;;;;;;4925248;29;20048;-94
2021/01/20 13:19:34;;;;;;;1999.90;999.90;;;9.30;99.90;;;;;;4936319;29;20065;-95
2021/01/20 13:22:02;;;;;;;1999.90;999.90;;;9.30;99.90;;;;;;4943278;29;20052;-95
2021/01/20 13:24:31;;;;;;;1999.90;999.90;;;9.40;99.90;;;;;;4937897;29;20139;-95
2021/01/20 13:26:58;;;;;;;1999.90;999.90;;;9.30;99.90;;;;;;4938851;29;20062;-95
2021/01/20 13:29:31;;;;;;;1999.90;999.90;;;9.40;99.90;;;;;;4957525;29;20059;-95
2021/01/20 13:31:58;;;;;;;1999.90;999.90;;;9.40;99.90;;;;;;4957821;29;20051;-95
2021/01/20 13:37:54;;;;;;;1999.90;999.90;;;9.50;99.90;;;;;;4925488;29;20127;-94
2021/01/20 13:40:23;;;;;;;1999.90;999.90;;;9.50;99.90;;;;;;4952347;29;20070;-94
2021/01/20 13:42:53;;;;;;;1999.90;999.90;;;9.50;99.90;;;;;;4939257;29;20106;-94
2021/01/20 13:45:27;;;;;;;1999.90;999.90;;;9.60;99.90;;;;;;4946651;29;20043;-95
2021/01/20 13:47:55;;;;;;;1999.90;999.90;;;9.60;99.90;;;;;;4957712;29;20081;-95
2021/01/20 13:50:24;;;;;;;1999.90;999.90;;;9.60;99.90;;;;;;4944743;29;20051;-95
2021/01/20 13:53:08;;;;;;;1999.90;999.90;;;9.60;99.90;;;;;;4957941;29;20056;-95
2021/01/20 13:55:38;;;;;;;1999.90;999.90;;;9.60;99.90;;;;;;4957701;29;20055;-95
2021/01/20 14:54:16;;;;;;;1999.90;999.90;;;9.50;99.90;;;;;;5538417;23;21058;-94
2021/01/20 15:43:56;;;;;;;1999.90;999.90;;;9.40;99.90;;;;;;4922980;29;20064;-96
2021/01/20 15:46:24;;;;;;;1999.90;999.90;;;9.30;99.90;;;;;;4924022;29;20079;-96
2021/01/20 15:48:53;;;;;;;1999.90;999.90;;;9.30;99.90;;;;;;4923049;29;20062;-96
2021/01/20 15:51:23;;;;;;;1999.90;999.90;;;9.20;99.90;;;;;;4926356;29;20056;-96
2021/01/20 15:53:53;;;;;;;1999.90;999.90;;;9.20;99.90;;;;;;4927884;29;20044;-96
2021/01/20 15:56:27;;;;;;;1999.90;999.90;;;9.20;99.90;;;;;;4913051;29;20076;-96
2021/01/20 15:59:06;;;;;;;1999.90;999.90;;;9.20;99.90;;;;;;4917927;29;20044;-96
2021/01/20 16:01:36;;;;;;;1999.90;999.90;;;9.20;99.90;;;;;;4918153;29;20143;-96
2021/01/20 16:29:24;;;;;;;1999.90;999.90;;;8.90;99.90;;;;;;4988780;23;20050;-94
2021/01/20 16:31:51;;;;;;;1999.90;999.90;;;8.90;99.90;;;;;;4946153;29;20060;-94
2021/01/20 16:34:19;;;;;;;1999.90;999.90;;;8.90;99.90;;;;;;4944459;29;20086;-95
2021/01/20 16:36:46;;;;;;;1999.90;999.90;;;8.90;99.90;;;;;;4940118;29;20091;-95
2021/01/20 16:39:13;;;;;;;1999.90;999.90;;;8.90;99.90;;;;;;4939389;29;20103;-95
2021/01/20 16:41:50;;;;;;;1999.90;999.90;;;8.90;99.90;;;;;;4939639;29;20051;-96
2021/01/20 16:44:18;;;;;;;1999.90;999.90;;;8.90;99.90;;;;;;4939892;29;20062;-95
2021/01/20 16:46:46;;;;;;;1999.90;999.90;;;8.90;99.90;;;;;;4939953;29;20064;-95
2021/01/20 16:49:13;;;;;;;1999.90;999.90;;;8.80;99.90;;;;;;4939278;29;20058;-95
2021/01/20 16:51:40;;;;;;;1999.90;999.90;;;8.90;99.90;;;;;;4939452;29;20051;-94
2021/01/20 16:54:09;;;;;;;1999.90;999.90;;;8.80;99.90;;;;;;4939962;29;20055;-92
2021/01/20 16:56:44;;;;;;;1999.90;999.90;;;8.90;99.90;;;;;;4940161;29;20078;-93
2021/01/20 16:59:21;;;;;;;1999.90;999.90;;;8.90;99.90;;;;;;4940327;29;20064;-93
2021/01/20 17:01:51;;;;;;;1999.90;999.90;;;8.90;99.90;;;;;;4939577;29;20479;-93
2021/01/20 17:04:19;;;;;;;1999.90;999.90;;;8.90;99.90;;;;;;4942134;29;20055;-93
2021/01/20 17:06:46;;;;;;;1999.90;999.90;;;8.80;99.90;;;;;;4938932;29;20052;-92
2021/01/20 17:09:14;;;;;;;1999.90;999.90;;;8.80;99.90;;;;;;4939003;29;20106;-93
2021/01/20 17:11:41;;;;;;;1999.90;999.90;;;8.90;99.90;;;;;;4938841;29;20055;-93
2021/01/20 17:14:09;;;;;;;1999.90;999.90;;;8.90;99.90;;;;;;4933025;29;20076;-93
2021/01/20 17:16:37;;;;;;;1999.90;999.90;;;8.80;99.90;;;;;;4920710;29;20397;-93
2021/01/20 17:19:05;;;;;;;1999.90;999.90;;;8.90;99.90;;;;;;4931076;29;20062;-93